首页
METAR-TAF:

METAR-TAF

机场 :

成吉思汗國際機場

乌兰巴托, 蒙古国

纬度: 47-55N, 经度: 106-52E, 海拔: 1306米

当前天气观测

该预报发布于35分钟前的14:00 UTC
风速4节,风向南转南东
温度 -5°C
湿度 73%
气压 1010 hPa
能见度10公里或以上
1500米以下无云,无积雨云

METAR: ZMUB 231400Z 16002MPS CAVOK M05/M09 Q1010 NOSIG RMK QFE651.1 71

时间: 22:35 (14:35 UTC)

预报

该预报发布于3小时和55分钟前的10:40 UTC
预报有效从23日的 12点(UTC)到 24日的 18点(UTC)
风速4节,风向多变
能见度10公里或以上
多云层高于10000英尺
成为
从 23日的 22点(UTC)到 24日的 01点(UTC)
风速12节,风向南转南东
散云层高于3300英尺
散云层高于10000英尺
成为
从 24日的 09点(UTC)到 24日的 12点(UTC)
风速14节,风向北转西北
能見度: 6000
多云层高于3000英尺
多云层高于8000英尺
短暂存在
从 24日的 12点(UTC)到 24日的 18点(UTC)
能見度: 3000

TAF: ZMUB 231040Z 2312/2418 VRB02MPS 9999 BKN100 TNM05/2322Z TX07/2407Z BECMG 2322/2401 16006MPS SCT033 SCT100 BECMG 2409/2412 33007MPS 6000 SN BKN030 BKN080 TEMPO 2412/2418 3000

超过4000个机场的气象观测和天气预报(METAR&TAF报告)。

可查询的气象台以黄色和红色小点在地图上表示。

将鼠标移到小点上方,可查看气象台名称。

然后点击查看天气观测和预报。

如需切换地图:点击带黑十字的绿色按钮放大地图;点击带横线的绿色按钮缩小地图;或者点击绿色箭头查看邻近地区的地图。


METAR-TAF: